createdAt,value
2019-04-14T00:01:26.173Z,40.30
2019-04-14T00:04:00.807Z,38.33
2019-04-14T00:06:32.957Z,42.05
2019-04-14T00:09:03.234Z,39.95
2019-04-14T00:11:36.592Z,41.53
2019-04-14T00:14:07.384Z,42.15
2019-04-14T00:16:38.803Z,44.93
2019-04-14T00:19:08.770Z,44.55
2019-04-14T00:21:38.946Z,43.52
2019-04-14T00:24:09.488Z,43.75
2019-04-14T00:26:40.202Z,42.43
2019-04-14T00:29:10.859Z,39.13
2019-04-14T00:31:41.201Z,42.23
2019-04-14T00:34:13.770Z,40.43
2019-04-14T00:36:57.319Z,41.60
2019-04-14T00:39:31.528Z,43.87
2019-04-14T00:42:06.716Z,41.60
2019-04-14T00:44:47.608Z,43.08
2019-04-14T00:47:19.929Z,42.67
2019-04-14T00:49:50.770Z,36.20
2019-04-14T00:52:21.174Z,34.88
2019-04-14T00:54:52.038Z,36.45
2019-04-14T00:57:22.423Z,32.83
2019-04-14T00:59:53.083Z,30.50
2019-04-14T01:02:23.529Z,28.42
2019-04-14T01:04:53.476Z,30.43
2019-04-14T01:07:24.165Z,31.02
2019-04-14T01:09:55.261Z,29.07
2019-04-14T01:12:25.760Z,29.05
2019-04-14T01:14:55.990Z,25.17
2019-04-14T01:17:26.507Z,28.85
2019-04-14T01:19:57.046Z,27.85
2019-04-14T01:22:27.099Z,32.93
2019-04-14T01:24:57.554Z,29.15
2019-04-14T01:27:27.763Z,31.90
2019-04-14T01:29:58.166Z,33.85
2019-04-14T01:32:28.349Z,30.72
2019-04-14T01:34:58.909Z,29.55
2019-04-14T01:37:29.074Z,33.05
2019-04-14T01:39:58.929Z,29.90
2019-04-14T01:42:28.979Z,32.83
2019-04-14T01:44:59.253Z,29.37
2019-04-14T01:47:29.806Z,27.40
2019-04-14T01:49:59.498Z,29.92
2019-04-14T01:52:34.124Z,29.60
2019-04-14T01:55:09.641Z,30.23
2019-04-14T02:00:16.319Z,29.05
2019-04-14T02:02:46.520Z,30.60
2019-04-14T02:05:16.799Z,29.15
2019-04-14T02:07:47.244Z,29.52
2019-04-14T02:10:17.276Z,27.20
2019-04-14T02:12:47.348Z,27.17
2019-04-14T02:15:17.927Z,28.57
2019-04-14T02:17:48.165Z,29.52
2019-04-14T02:20:18.582Z,31.65
2019-04-14T02:22:48.458Z,28.77
2019-04-14T02:25:18.863Z,28.05
2019-04-14T02:27:49.375Z,29.25
2019-04-14T02:30:23.316Z,26.80
2019-04-14T02:33:32.188Z,25.95
2019-04-14T02:36:05.674Z,27.22
2019-04-14T02:41:02.463Z,27.52
2019-04-14T02:43:37.671Z,30.88
2019-04-14T02:46:07.864Z,27.02
2019-04-14T02:48:44.853Z,29.85
2019-04-14T02:53:42.067Z,29.30
2019-04-14T02:58:48.389Z,30.97
2019-04-14T03:01:16.322Z,30.85
2019-04-14T03:03:43.562Z,31.00
2019-04-14T03:06:14.539Z,29.37
2019-04-14T03:11:20.707Z,28.50
2019-04-14T03:16:25.800Z,31.07
2019-04-14T03:18:57.761Z,28.38
2019-04-14T03:29:50.261Z,32.33
2019-04-14T03:32:23.496Z,31.13
2019-04-14T03:34:58.155Z,34.27
2019-04-14T03:39:49.754Z,31.27
2019-04-14T03:42:26.867Z,34.65
2019-04-14T03:47:19.494Z,31.40
2019-04-14T03:49:48.427Z,31.75
2019-04-14T03:54:40.512Z,31.90
2019-04-14T03:56:55.643Z,34.45
2019-04-14T03:59:26.115Z,32.38
2019-04-14T04:01:56.615Z,30.65
2019-04-14T04:04:27.478Z,34.30
2019-04-14T04:06:57.534Z,31.82
2019-04-14T04:09:29.977Z,33.67
2019-04-14T04:12:20.274Z,31.65
2019-04-14T04:14:51.074Z,31.30
2019-04-14T04:17:38.802Z,30.17
2019-04-14T04:20:11.024Z,31.82
2019-04-14T04:22:52.271Z,30.70
2019-04-14T04:25:24.664Z,29.95
2019-04-14T04:27:59.077Z,27.77
2019-04-14T04:30:30.527Z,30.23
2019-04-14T04:33:11.008Z,29.60
2019-04-14T04:35:42.105Z,31.90
2019-04-14T04:38:13.796Z,31.40
2019-04-14T04:40:44.006Z,33.08
2019-04-14T04:43:14.707Z,36.20
2019-04-14T04:45:45.225Z,33.05
2019-04-14T04:48:15.207Z,31.73
2019-04-14T04:50:45.701Z,33.48
2019-04-14T04:53:15.802Z,34.75
2019-04-14T04:55:46.053Z,35.05
2019-04-14T04:58:15.732Z,34.80
2019-04-14T05:00:47.378Z,34.98
2019-04-14T05:03:16.853Z,34.60
2019-04-14T05:06:24.550Z,33.40
2019-04-14T05:08:56.956Z,33.98
2019-04-14T05:11:31.659Z,34.45
2019-04-14T05:14:12.971Z,37.33
2019-04-14T05:16:42.573Z,34.18
2019-04-14T05:19:23.030Z,35.98
2019-04-14T05:21:43.335Z,34.83
2019-04-14T05:24:13.641Z,33.88
2019-04-14T05:26:43.796Z,33.18
2019-04-14T05:29:14.565Z,32.13
2019-04-14T05:31:45.296Z,35.17
2019-04-14T05:34:15.064Z,32.95
2019-04-14T05:36:45.344Z,30.85
2019-04-14T05:39:15.674Z,30.70
2019-04-14T05:41:56.758Z,30.80
2019-04-14T05:44:16.505Z,35.40
2019-04-14T05:46:46.993Z,31.52
2019-04-14T05:49:27.548Z,30.48
2019-04-14T05:51:48.162Z,29.15
2019-04-14T05:54:18.543Z,29.57
2019-04-14T05:56:49.303Z,32.40
2019-04-14T05:59:20.164Z,31.42
2019-04-14T06:01:49.691Z,30.90
2019-04-14T06:04:20.257Z,30.88
2019-04-14T06:06:49.855Z,32.05
2019-04-14T06:09:19.434Z,34.25
2019-04-14T06:11:48.910Z,30.88
2019-04-14T06:14:18.412Z,30.80
2019-04-14T06:16:47.884Z,28.25
2019-04-14T06:19:17.263Z,33.92
2019-04-14T06:21:46.751Z,33.15
2019-04-14T06:24:16.429Z,33.20
2019-04-14T06:26:45.893Z,31.48
2019-04-14T06:29:15.524Z,33.02
2019-04-14T06:31:52.178Z,29.92
2019-04-14T06:34:35.343Z,30.08
2019-04-14T06:37:09.649Z,30.60
2019-04-14T06:39:40.801Z,31.95
2019-04-14T06:42:10.267Z,34.92
2019-04-14T06:44:39.844Z,34.03
2019-04-14T06:47:09.231Z,32.13
2019-04-14T06:49:48.363Z,41.73
2019-04-14T06:52:09.875Z,36.05
2019-04-14T06:54:39.427Z,34.25
2019-04-14T06:57:08.955Z,33.05
2019-04-14T06:59:38.427Z,32.60
2019-04-14T07:02:08.711Z,34.48
2019-04-14T07:04:38.396Z,31.65
2019-04-14T07:07:07.888Z,31.42
2019-04-14T07:09:37.438Z,34.73
2019-04-14T07:12:06.871Z,32.17
2019-04-14T07:14:36.445Z,29.98
2019-04-14T07:17:06.007Z,31.42
2019-04-14T07:19:35.463Z,32.35
2019-04-14T07:22:05.111Z,31.73
2019-04-14T07:24:35.974Z,30.35
2019-04-14T07:27:05.382Z,34.25
2019-04-14T07:29:36.451Z,34.55
2019-04-14T07:32:13.367Z,34.23
2019-04-14T07:35:00.765Z,31.95
2019-04-14T07:37:32.146Z,29.85
2019-04-14T07:40:09.219Z,28.67
2019-04-14T07:42:46.481Z,28.85
2019-04-14T07:45:17.552Z,28.80
2019-04-14T07:47:54.483Z,28.87
2019-04-14T07:50:25.697Z,28.02
2019-04-14T07:52:59.572Z,26.12
2019-04-14T07:55:36.476Z,30.45
2019-04-14T07:58:07.763Z,28.02
2019-04-14T08:00:47.845Z,25.57
2019-04-14T08:03:34.890Z,25.90
2019-04-14T08:06:04.506Z,27.20
2019-04-14T08:08:34.041Z,27.27
2019-04-14T08:11:03.586Z,27.25
2019-04-14T08:13:34.085Z,27.35
2019-04-14T08:16:03.565Z,27.17
2019-04-14T08:18:32.987Z,26.73
2019-04-14T08:21:02.414Z,26.27
2019-04-14T08:23:31.978Z,24.82
2019-04-14T08:26:01.585Z,26.73
2019-04-14T08:28:31.086Z,24.47
2019-04-14T08:31:14.011Z,24.07
2019-04-14T08:33:43.498Z,25.40
2019-04-14T08:36:13.042Z,23.38
2019-04-14T08:38:42.684Z,21.93
2019-04-14T08:41:12.251Z,23.45
2019-04-14T08:43:43.410Z,25.23
2019-04-14T08:46:23.462Z,26.25
2019-04-14T08:49:00.400Z,24.72
2019-04-14T08:51:34.517Z,31.05
2019-04-14T08:54:11.282Z,22.52
2019-04-14T08:56:42.427Z,22.82
2019-04-14T08:59:27.143Z,22.98
2019-04-14T09:02:04.286Z,22.22
2019-04-14T09:04:37.959Z,22.52
2019-04-14T09:07:25.415Z,22.85
2019-04-14T09:09:56.687Z,22.20
2019-04-14T09:12:28.096Z,24.50
2019-04-14T09:15:00.749Z,22.32
2019-04-14T09:17:31.079Z,21.77
2019-04-14T09:20:00.601Z,22.55
2019-04-14T09:22:30.392Z,22.80
2019-04-14T09:25:00.073Z,22.15
2019-04-14T09:27:29.673Z,23.10
2019-04-14T09:29:59.380Z,24.40
2019-04-14T09:32:29.990Z,21.82
2019-04-14T09:34:59.565Z,22.20
2019-04-14T09:37:29.042Z,24.27
2019-04-14T09:39:58.724Z,22.55
2019-04-14T09:42:29.525Z,23.50
2019-04-14T09:44:59.189Z,21.85
2019-04-14T09:47:28.613Z,25.60
2019-04-14T09:49:58.205Z,26.02
2019-04-14T09:52:28.034Z,23.75
2019-04-14T09:54:57.519Z,23.05
2019-04-14T09:57:28.705Z,22.55
2019-04-14T09:59:58.699Z,21.37
2019-04-14T10:02:28.311Z,21.42
2019-04-14T10:04:59.154Z,21.55
2019-04-14T10:07:29.035Z,21.75
2019-04-14T10:09:58.688Z,21.73
2019-04-14T10:12:28.390Z,21.02
2019-04-14T10:14:59.047Z,23.87
2019-04-14T10:17:28.575Z,18.62
2019-04-14T10:19:58.248Z,19.02
2019-04-14T10:22:34.114Z,19.80
2019-04-14T10:25:00.584Z,19.45
2019-04-14T10:27:30.232Z,18.80
2019-04-14T10:30:00.122Z,18.92
2019-04-14T10:32:29.719Z,16.80
2019-04-14T10:34:59.471Z,24.50
2019-04-14T10:37:29.186Z,19.95
2019-04-14T10:39:59.003Z,16.25
2019-04-14T10:42:28.599Z,16.87
2019-04-14T10:44:58.007Z,17.73
2019-04-14T10:47:27.674Z,16.97
2019-04-14T10:49:57.685Z,17.00
2019-04-14T10:52:27.336Z,17.73
2019-04-14T10:54:57.035Z,14.60
2019-04-14T10:57:26.536Z,16.25
2019-04-14T10:59:55.950Z,15.90
2019-04-14T11:02:25.526Z,16.55
2019-04-14T11:04:55.315Z,16.15
2019-04-14T11:07:26.580Z,18.12
2019-04-14T11:09:56.645Z,21.35
2019-04-14T11:12:26.094Z,29.48
2019-04-14T11:14:55.668Z,19.23
2019-04-14T11:17:25.205Z,16.45
2019-04-14T11:19:55.010Z,14.60
2019-04-14T11:22:24.443Z,14.98
2019-04-14T11:24:54.043Z,14.93
2019-04-14T11:27:23.605Z,13.15
2019-04-14T11:29:54.133Z,12.43
2019-04-14T11:32:34.080Z,12.82
2019-04-14T11:35:05.467Z,12.95
2019-04-14T11:37:48.936Z,12.00
2019-04-14T11:40:20.583Z,11.15
2019-04-14T11:42:52.645Z,10.95
2019-04-14T11:45:21.250Z,11.08
2019-04-14T11:47:50.904Z,10.75
2019-04-14T11:50:20.577Z,10.53
2019-04-14T11:52:50.200Z,9.65
2019-04-14T11:55:19.752Z,10.25
2019-04-14T11:57:49.479Z,10.98
2019-04-14T12:00:29.465Z,10.75
2019-04-14T12:03:03.494Z,13.03
2019-04-14T12:05:52.989Z,12.05
2019-04-14T12:08:39.124Z,9.33
2019-04-14T12:11:08.916Z,10.78
2019-04-14T12:13:38.591Z,9.83
2019-04-14T12:16:08.130Z,10.10
2019-04-14T12:18:37.558Z,11.22
2019-04-14T12:21:07.139Z,10.53
2019-04-14T12:23:56.070Z,10.00
2019-04-14T12:26:25.647Z,9.20
2019-04-14T12:28:55.862Z,9.90
2019-04-14T12:31:26.532Z,9.30
2019-04-14T12:33:56.273Z,10.08
2019-04-14T12:36:25.777Z,11.25
2019-04-14T12:38:55.403Z,10.93
2019-04-14T12:41:26.774Z,10.20
2019-04-14T12:44:00.997Z,10.68
2019-04-14T12:46:49.929Z,11.68
2019-04-14T12:49:21.143Z,10.65
2019-04-14T12:51:55.252Z,11.65
2019-04-14T12:54:26.313Z,14.53
2019-04-14T12:56:55.910Z,12.40
2019-04-14T12:59:25.801Z,11.68
2019-04-14T13:01:57.285Z,12.78
2019-04-14T13:04:28.442Z,11.57
2019-04-14T13:06:58.017Z,13.30
2019-04-14T13:09:27.885Z,11.20
2019-04-14T13:11:57.713Z,11.48
2019-04-14T13:14:27.203Z,10.85
2019-04-14T13:16:57.875Z,11.00
2019-04-14T13:19:27.471Z,10.15
2019-04-14T13:21:57.033Z,10.40
2019-04-14T13:24:26.542Z,10.55
2019-04-14T13:26:56.282Z,9.55
2019-04-14T13:29:25.919Z,8.55
2019-04-14T13:31:55.808Z,9.70
2019-04-14T13:34:25.412Z,8.60
2019-04-14T13:36:54.813Z,9.18
2019-04-14T13:39:24.355Z,8.63
2019-04-14T13:41:54.080Z,9.75
2019-04-14T13:44:23.684Z,10.15
2019-04-14T13:46:53.158Z,11.50
2019-04-14T13:49:22.768Z,10.85
2019-04-14T13:51:53.276Z,15.18
2019-04-14T13:54:22.905Z,9.85
2019-04-14T19:09:42.425Z,7.72
2019-04-14T19:12:22.514Z,8.90
2019-04-14T19:14:56.563Z,7.50
2019-04-14T19:17:27.851Z,5.40
2019-04-14T19:20:01.795Z,6.42
2019-04-14T19:22:30.393Z,5.15
2019-04-14T19:25:07.847Z,7.65
2019-04-14T19:27:31.804Z,8.65
2019-04-14T19:30:01.464Z,5.53
2019-04-14T19:32:32.161Z,7.17
2019-04-14T19:35:01.862Z,5.90
2019-04-14T19:37:31.736Z,6.42
2019-04-14T19:40:01.323Z,8.15
2019-04-14T19:42:31.375Z,15.15
2019-04-14T19:45:00.909Z,10.68
2019-04-14T19:47:30.528Z,8.15
2019-04-14T19:50:00.044Z,7.90
2019-04-14T19:52:29.546Z,8.58
2019-04-14T19:54:59.141Z,24.82
2019-04-14T19:57:28.779Z,16.48
2019-04-14T19:59:58.278Z,8.33
2019-04-14T20:02:27.730Z,9.68
2019-04-14T20:04:58.457Z,6.70
2019-04-14T20:07:27.863Z,5.72
2019-04-14T20:09:57.372Z,5.00
2019-04-14T20:12:26.922Z,7.03
2019-04-14T20:14:56.679Z,5.83
2019-04-14T20:17:30.561Z,5.97
2019-04-14T20:20:17.756Z,5.58
2019-04-14T20:22:54.543Z,5.87
2019-04-14T20:25:33.846Z,8.80
2019-04-14T20:28:01.351Z,8.55
2019-04-14T20:30:48.401Z,8.18
2019-04-14T20:33:18.019Z,10.72
2019-04-14T20:35:47.569Z,8.78
2019-04-14T20:38:17.231Z,9.35
2019-04-14T20:40:46.787Z,8.95
2019-04-14T20:43:16.326Z,8.90
2019-04-14T20:45:45.924Z,6.83
2019-04-14T20:48:15.486Z,6.22
2019-04-14T20:50:45.070Z,7.47
2019-04-14T20:53:14.569Z,7.15
2019-04-14T20:55:47.415Z,9.60
2019-04-14T20:58:17.003Z,9.23
2019-04-14T21:00:46.369Z,9.23
2019-04-14T21:03:20.461Z,7.12
2019-04-14T21:05:57.486Z,9.63
2019-04-14T21:08:45.301Z,8.10
2019-04-14T21:11:22.625Z,8.70
2019-04-14T21:14:05.715Z,7.22
2019-04-14T21:16:38.394Z,8.13
2019-04-14T21:19:09.545Z,7.28
2019-04-14T21:21:45.447Z,10.05
2019-04-14T21:24:16.500Z,9.75
2019-04-14T21:27:03.439Z,10.98
2019-04-14T21:29:37.237Z,11.30
2019-04-14T21:32:08.429Z,12.45
2019-04-14T21:34:48.909Z,10.35
2019-04-14T21:37:32.050Z,12.28
2019-04-14T21:40:08.955Z,9.98
2019-04-14T21:42:40.221Z,12.90
2019-04-14T21:45:15.200Z,13.18
2019-04-14T21:47:44.711Z,12.58
2019-04-14T21:50:15.230Z,14.45
2019-04-14T21:52:49.344Z,13.88
2019-04-14T21:55:20.034Z,15.10
2019-04-14T21:57:52.482Z,13.45
2019-04-14T22:00:32.157Z,14.98
2019-04-14T22:03:21.335Z,13.75
2019-04-14T22:05:52.594Z,11.53
2019-04-14T22:08:35.678Z,10.43
2019-04-14T22:11:07.441Z,10.25
2019-04-14T22:13:36.943Z,10.60
2019-04-14T22:16:06.430Z,9.23
2019-04-14T22:18:36.102Z,10.13
2019-04-14T22:21:05.626Z,9.33
2019-04-14T22:23:35.063Z,12.47
2019-04-14T22:26:05.245Z,10.20
2019-04-14T22:28:34.721Z,8.23
2019-04-14T22:31:04.170Z,11.35
2019-04-14T22:33:35.654Z,12.45
2019-04-14T22:36:05.490Z,9.50
2019-04-14T22:38:35.057Z,8.60
2019-04-14T22:41:05.111Z,8.80
2019-04-14T22:43:34.756Z,9.08
2019-04-14T22:46:14.227Z,7.00
2019-04-14T22:48:43.620Z,9.85
2019-04-14T22:51:13.099Z,10.00
2019-04-14T22:53:42.667Z,8.65
2019-04-14T22:56:12.218Z,9.55
2019-04-14T22:58:41.843Z,10.23
2019-04-14T23:01:13.418Z,9.08
2019-04-14T23:03:50.612Z,10.90
2019-04-14T23:06:21.812Z,9.60
2019-04-14T23:08:55.538Z,11.75
2019-04-14T23:11:26.807Z,11.30
2019-04-14T23:14:14.256Z,12.95
2019-04-14T23:17:02.857Z,11.05
2019-04-14T23:19:49.260Z,11.57
2019-04-14T23:22:20.535Z,9.75
2019-04-14T23:24:51.112Z,9.65
2019-04-14T23:27:20.844Z,9.78
2019-04-14T23:29:50.498Z,9.78
2019-04-14T23:32:20.048Z,10.40
2019-04-14T23:34:49.434Z,10.08
2019-04-14T23:37:19.035Z,10.95
2019-04-14T23:39:48.940Z,9.38
2019-04-14T23:42:18.486Z,9.33
2019-04-14T23:44:48.035Z,10.23
2019-04-14T23:47:17.810Z,9.53
2019-04-14T23:49:47.493Z,9.05
2019-04-14T23:52:17.025Z,9.25
2019-04-14T23:54:47.642Z,8.98
2019-04-14T23:57:18.669Z,10.60
2019-04-14T23:59:48.139Z,8.83
